Dawson Creek, Canada
Current Conditions -  °F | °C
As of 9:00 PM on Friday 24 Oct 2014 (Local Time) from CYDQ Reporting Station
Clear Clear  
Wind Chill: 34°   Ceiling: Unl
Heat Index: 34°   Visibility: 9mi
Dew Point: 28°   Wind: 0mph
Humidity: 81%   Direction: NA
Pressure: 29.94"   Gusts: NA
Location:  55.76°N, 120.24°W
Report Text: CYDQ 250300Z AUTO 00000KT 9SM CLR 01/M02 A2994 RMK SLP174
Loading
Personal Weather Stations






























Interactive Weather Map
Tropical Storm Tracking
New forecast layout! Learn more

10-Day Weather Forecast

Advertisements
Track Severe Weather on mobile